createdAt,value
2018-11-13T00:01:13.698Z,6.13
2018-11-13T00:03:41.135Z,5.73
2018-11-13T00:06:08.565Z,4.80
2018-11-13T00:08:36.021Z,5.60
2018-11-13T00:11:03.489Z,5.37
2018-11-13T00:13:30.904Z,6.10
2018-11-13T00:15:58.348Z,6.53
2018-11-13T00:18:25.785Z,6.53
2018-11-13T00:20:53.182Z,6.30
2018-11-13T00:23:20.594Z,6.87
2018-11-13T00:25:48.124Z,7.00
2018-11-13T00:28:15.644Z,6.60
2018-11-13T00:30:43.060Z,5.93
2018-11-13T00:33:10.497Z,7.33
2018-11-13T00:35:37.911Z,6.73
2018-11-13T00:38:05.324Z,6.93
2018-11-13T00:40:33.001Z,7.73
2018-11-13T00:43:00.549Z,8.33
2018-11-13T00:45:28.013Z,6.93
2018-11-13T00:47:55.399Z,8.13
2018-11-13T00:50:22.852Z,8.23
2018-11-13T00:52:50.304Z,8.70
2018-11-13T00:55:17.821Z,7.90
2018-11-13T00:57:45.378Z,7.60
2018-11-13T01:00:14.989Z,7.80
2018-11-13T01:02:42.700Z,8.93
2018-11-13T01:05:11.367Z,8.23
2018-11-13T01:07:39.046Z,9.03
2018-11-13T01:10:07.041Z,8.20
2018-11-13T01:12:34.477Z,8.70
2018-11-13T01:15:02.048Z,10.33
2018-11-13T01:17:29.387Z,10.00
2018-11-13T01:19:56.813Z,10.63
2018-11-13T01:22:24.265Z,9.67
2018-11-13T01:24:51.727Z,10.67
2018-11-13T01:27:19.164Z,10.00
2018-11-13T01:29:52.578Z,9.47
2018-11-13T01:32:20.042Z,10.50
2018-11-13T01:34:47.579Z,10.93
2018-11-13T01:37:15.050Z,11.73
2018-11-13T01:39:42.497Z,11.33
2018-11-13T01:42:09.897Z,11.57
2018-11-13T01:44:37.435Z,11.53
2018-11-13T01:47:04.996Z,10.83
2018-11-13T01:49:32.441Z,10.10
2018-11-13T01:51:59.927Z,10.90
2018-11-13T01:54:27.382Z,10.67
2018-11-13T01:56:54.835Z,11.73
2018-11-13T01:59:22.331Z,11.50
2018-11-13T02:01:49.736Z,10.87
2018-11-13T02:04:17.230Z,12.40
2018-11-13T02:06:44.632Z,12.17
2018-11-13T02:09:12.047Z,11.27
2018-11-13T02:11:39.944Z,10.80
2018-11-13T02:14:07.339Z,12.43
2018-11-13T02:16:34.891Z,12.90
2018-11-13T02:19:02.334Z,11.17
2018-11-13T02:21:29.939Z,8.83
2018-11-13T02:23:57.370Z,12.70
2018-11-13T02:26:24.797Z,12.87
2018-11-13T02:28:52.247Z,13.57
2018-11-13T02:31:19.738Z,10.60
2018-11-13T02:33:47.159Z,13.83
2018-11-13T02:36:14.589Z,12.60
2018-11-13T02:38:42.011Z,13.70
2018-11-13T02:41:10.284Z,13.40
2018-11-13T02:43:37.687Z,11.47
2018-11-13T02:46:05.152Z,13.17
2018-11-13T02:48:32.572Z,13.10
2018-11-13T02:51:00.106Z,11.73
2018-11-13T02:53:27.526Z,12.17
2018-11-13T02:55:54.957Z,13.03
2018-11-13T02:58:22.393Z,12.47
2018-11-13T03:00:49.820Z,11.20
2018-11-13T03:03:17.303Z,12.00
2018-11-13T03:05:44.744Z,13.53
2018-11-13T03:08:12.190Z,12.83
2018-11-13T03:10:39.656Z,12.03
2018-11-13T03:13:07.109Z,12.53
2018-11-13T03:15:34.672Z,11.67
2018-11-13T03:18:02.105Z,11.53
2018-11-13T03:20:29.558Z,12.90
2018-11-13T03:22:57.044Z,9.97
2018-11-13T03:25:24.505Z,11.93
2018-11-13T03:27:51.908Z,11.50
2018-11-13T03:30:24.355Z,10.17
2018-11-13T03:32:52.162Z,11.50
2018-11-13T03:35:19.610Z,11.80
2018-11-13T03:37:47.043Z,12.50
2018-11-13T03:40:14.826Z,10.73
2018-11-13T03:42:43.054Z,11.23
2018-11-13T03:45:11.641Z,13.23
2018-11-13T03:47:39.248Z,10.20
2018-11-13T03:50:07.700Z,11.27
2018-11-13T03:52:35.113Z,10.77
2018-11-13T03:55:02.542Z,13.77
2018-11-13T03:57:29.936Z,11.90
2018-11-13T03:59:57.398Z,10.70
2018-11-13T04:02:24.835Z,11.87
2018-11-13T04:04:52.241Z,12.13
2018-11-13T04:07:19.668Z,10.73
2018-11-13T04:09:47.107Z,12.07
2018-11-13T04:12:14.682Z,10.07
2018-11-13T04:14:42.098Z,11.73
2018-11-13T04:17:09.540Z,11.77
2018-11-13T04:19:36.972Z,12.37
2018-11-13T04:22:04.715Z,11.23
2018-11-13T04:24:32.748Z,11.30
2018-11-13T04:27:01.316Z,10.43
2018-11-13T04:29:28.824Z,9.83
2018-11-13T04:31:56.333Z,8.47
2018-11-13T04:34:23.759Z,10.47
2018-11-13T04:36:51.174Z,10.03
2018-11-13T04:39:18.674Z,8.63
2018-11-13T04:41:46.105Z,9.80
2018-11-13T04:44:13.528Z,8.77
2018-11-13T04:46:40.977Z,10.50
2018-11-13T04:49:08.423Z,10.03
2018-11-13T04:51:36.200Z,10.67
2018-11-13T04:54:03.657Z,9.93
2018-11-13T04:56:31.078Z,10.60
2018-11-13T04:58:58.614Z,10.40
2018-11-13T05:01:26.035Z,9.50
2018-11-13T05:03:54.061Z,10.53
2018-11-13T05:06:21.492Z,9.50
2018-11-13T05:08:48.915Z,9.00
2018-11-13T05:11:16.344Z,9.53
2018-11-13T05:13:43.762Z,10.03
2018-11-13T05:16:11.192Z,9.67
2018-11-13T05:18:38.691Z,9.70
2018-11-13T05:21:06.191Z,7.87
2018-11-13T05:23:33.595Z,9.27
2018-11-13T05:26:01.062Z,9.20
2018-11-13T05:28:28.725Z,9.00
2018-11-13T05:30:56.130Z,9.73
2018-11-13T05:33:23.560Z,9.70
2018-11-13T05:35:50.994Z,9.53
2018-11-13T05:38:18.428Z,6.77
2018-11-13T05:40:45.836Z,8.77
2018-11-13T05:43:13.264Z,9.33
2018-11-13T05:45:40.959Z,9.57
2018-11-13T05:48:08.386Z,9.30
2018-11-13T05:50:35.828Z,8.70
2018-11-13T05:53:03.264Z,8.80
2018-11-13T05:55:30.701Z,9.03
2018-11-13T05:57:58.366Z,7.13
2018-11-13T06:00:29.422Z,9.47
2018-11-13T06:02:56.929Z,8.10
2018-11-13T06:05:24.800Z,7.23
2018-11-13T06:07:52.238Z,9.03
2018-11-13T06:10:19.694Z,7.77
2018-11-13T06:12:47.158Z,7.77
2018-11-13T06:15:14.568Z,8.23
2018-11-13T06:17:42.013Z,8.90
2018-11-13T06:20:10.251Z,8.53
2018-11-13T06:22:37.905Z,7.47
2018-11-13T06:25:06.081Z,7.00
2018-11-13T06:27:33.518Z,8.07
2018-11-13T06:30:01.079Z,8.30
2018-11-13T06:32:28.499Z,6.60
2018-11-13T06:34:55.940Z,7.70
2018-11-13T06:37:23.357Z,7.90
2018-11-13T06:39:50.763Z,7.80
2018-11-13T06:42:18.253Z,6.43
2018-11-13T06:44:45.703Z,6.13
2018-11-13T06:47:13.227Z,6.77
2018-11-13T06:49:40.759Z,8.17
2018-11-13T06:52:08.133Z,7.50
2018-11-13T06:55:17.742Z,6.43
2018-11-13T06:57:45.280Z,6.10
2018-11-13T07:00:12.749Z,5.90
2018-11-13T07:02:40.161Z,7.00
2018-11-13T07:05:08.507Z,7.00
2018-11-13T07:07:35.896Z,6.03
2018-11-13T07:10:03.710Z,6.13
2018-11-13T07:12:31.158Z,6.13
2018-11-13T07:14:58.563Z,6.50
2018-11-13T07:17:26.032Z,5.23
2018-11-13T07:19:53.456Z,5.80
2018-11-13T07:22:20.926Z,5.73
2018-11-13T07:24:48.329Z,6.73
2018-11-13T07:27:15.790Z,5.87
2018-11-13T07:29:43.624Z,6.10
2018-11-13T07:32:11.056Z,5.43
2018-11-13T07:34:38.500Z,5.03
2018-11-13T07:37:05.977Z,4.60
2018-11-13T07:39:33.463Z,5.33
2018-11-13T07:42:00.922Z,5.27
2018-11-13T07:44:28.357Z,4.43
2018-11-13T07:46:55.856Z,4.80
2018-11-13T07:49:23.294Z,4.57
2018-11-13T07:51:50.726Z,4.73
2018-11-13T07:54:18.131Z,4.10
2018-11-13T07:56:45.555Z,4.30
2018-11-13T07:59:12.963Z,4.10
2018-11-13T08:01:40.387Z,4.27
2018-11-13T08:04:07.847Z,3.77
2018-11-13T08:06:35.308Z,4.20
2018-11-13T08:09:03.843Z,5.07
2018-11-13T08:11:31.276Z,4.00
2018-11-13T08:13:58.698Z,3.67
2018-11-13T08:16:26.428Z,3.90
2018-11-13T08:18:53.837Z,3.97
2018-11-13T08:21:21.274Z,2.60
2018-11-13T08:23:48.999Z,2.07
2018-11-13T08:26:16.456Z,1.50
2018-11-13T08:28:43.938Z,1.13
2018-11-13T08:31:11.587Z,1.40
2018-11-13T08:33:38.995Z,1.47
2018-11-13T08:36:06.870Z,1.50
2018-11-13T08:38:34.320Z,1.70
2018-11-13T08:41:01.738Z,2.00
2018-11-13T08:43:29.149Z,2.13
2018-11-13T08:45:56.833Z,2.40
2018-11-13T08:48:24.275Z,2.47
2018-11-13T08:50:51.755Z,3.90
2018-11-13T08:53:19.153Z,3.93
2018-11-13T08:55:46.582Z,5.00
2018-11-13T08:58:14.064Z,6.20
2018-11-13T09:00:41.434Z,5.80
2018-11-13T09:03:08.830Z,3.53
2018-11-13T09:05:36.244Z,3.60
2018-11-13T09:08:03.703Z,4.47
2018-11-13T09:10:31.154Z,3.70
2018-11-13T09:12:58.594Z,2.97
2018-11-13T09:15:26.089Z,3.93
2018-11-13T09:17:54.394Z,3.63
2018-11-13T09:20:21.765Z,3.37
2018-11-13T09:22:49.246Z,2.97
2018-11-13T09:25:17.864Z,3.17
2018-11-13T09:27:45.305Z,2.37
2018-11-13T09:30:14.075Z,3.20
2018-11-13T09:32:41.968Z,2.23
2018-11-13T09:35:10.515Z,2.47
2018-11-13T09:37:38.041Z,2.30
2018-11-13T09:40:07.283Z,2.67
2018-11-13T09:42:34.701Z,3.00
2018-11-13T09:45:02.209Z,2.00
2018-11-13T09:47:29.584Z,2.00
2018-11-13T09:49:57.021Z,1.93
2018-11-13T09:52:24.548Z,2.00
2018-11-13T09:54:51.988Z,1.77
2018-11-13T09:57:19.416Z,1.87
2018-11-13T09:59:46.948Z,1.70
2018-11-13T10:02:14.955Z,1.60
2018-11-13T10:04:42.501Z,2.07
2018-11-13T10:07:09.327Z,2.03
2018-11-13T10:09:36.737Z,1.77
2018-11-13T10:12:04.413Z,1.13
2018-11-13T10:14:31.877Z,1.37
2018-11-13T10:16:59.331Z,1.50
2018-11-13T10:19:26.757Z,1.67
2018-11-13T10:21:54.232Z,1.53
2018-11-13T10:24:21.637Z,2.03
2018-11-13T10:26:49.076Z,1.93
2018-11-13T10:29:16.502Z,2.30
2018-11-13T10:31:43.972Z,2.37
2018-11-13T10:34:11.502Z,2.13
2018-11-13T10:36:38.923Z,2.33
2018-11-13T10:39:07.201Z,2.37
2018-11-13T10:41:34.729Z,1.87
2018-11-13T10:44:02.130Z,1.60
2018-11-13T10:46:29.576Z,1.70
2018-11-13T10:48:57.279Z,1.60
2018-11-13T10:51:24.743Z,1.57
2018-11-13T10:53:52.158Z,1.43
2018-11-13T10:56:19.587Z,1.93
2018-11-13T10:58:47.013Z,1.20
2018-11-13T11:01:20.355Z,1.87
2018-11-13T11:04:00.347Z,1.40
2018-11-13T11:06:28.545Z,1.80
2018-11-13T11:08:55.972Z,1.50
2018-11-13T11:11:23.619Z,1.70
2018-11-13T11:13:51.169Z,1.60
2018-11-13T11:16:18.475Z,1.13
2018-11-13T11:18:46.022Z,1.40
2018-11-13T11:21:13.419Z,1.50
2018-11-13T11:23:41.209Z,1.97
2018-11-13T11:26:09.003Z,1.30
2018-11-13T11:28:36.518Z,1.40
2018-11-13T11:31:04.039Z,1.70
2018-11-13T11:33:31.463Z,1.60
2018-11-13T11:35:59.012Z,1.20
2018-11-13T11:38:26.486Z,1.27
2018-11-13T11:40:53.900Z,1.20
2018-11-13T11:43:21.397Z,1.60
2018-11-13T11:45:48.806Z,1.20
2018-11-13T11:48:16.209Z,1.63
2018-11-13T11:50:43.647Z,1.60
2018-11-13T11:53:11.065Z,1.20
2018-11-13T11:55:38.542Z,1.20
2018-11-13T11:58:05.988Z,1.10
2018-11-13T12:00:34.340Z,1.73
2018-11-13T12:03:01.817Z,1.73
2018-11-13T12:05:29.216Z,1.60
2018-11-13T12:07:56.670Z,1.73
2018-11-13T12:10:24.135Z,1.43
2018-11-13T12:12:51.592Z,1.80
2018-11-13T12:15:19.012Z,1.47
2018-11-13T12:17:46.465Z,1.20
2018-11-13T12:20:14.711Z,1.43
2018-11-13T12:22:42.233Z,1.80
2018-11-13T12:25:11.052Z,1.63
2018-11-13T12:27:38.620Z,1.90
2018-11-13T12:30:07.573Z,1.60
2018-11-13T12:32:35.041Z,1.87
2018-11-13T12:35:02.474Z,1.40
2018-11-13T12:37:29.886Z,1.70
2018-11-13T12:39:57.357Z,1.80
2018-11-13T12:42:24.755Z,1.70
2018-11-13T12:44:52.733Z,1.63
2018-11-13T12:47:20.130Z,2.13
2018-11-13T12:49:47.676Z,1.83
2018-11-13T12:52:16.164Z,1.77
2018-11-13T12:54:44.188Z,1.90
2018-11-13T12:57:11.634Z,1.53
2018-11-13T12:59:39.079Z,1.70
2018-11-13T13:02:07.140Z,1.63
2018-11-13T13:04:35.177Z,1.77
2018-11-13T13:07:02.657Z,1.63
2018-11-13T13:09:30.107Z,1.60
2018-11-13T13:11:57.530Z,1.60
2018-11-13T13:14:24.971Z,1.83
2018-11-13T13:16:52.410Z,2.00
2018-11-13T13:19:19.842Z,2.10
2018-11-13T13:21:47.349Z,2.07
2018-11-13T13:24:14.789Z,2.03
2018-11-13T13:26:42.244Z,2.40
2018-11-13T13:29:09.779Z,1.70
2018-11-13T13:31:37.232Z,1.60
2018-11-13T13:34:04.728Z,1.47
2018-11-13T13:36:32.456Z,1.17
2018-11-13T13:39:00.092Z,1.60
2018-11-13T13:41:27.547Z,1.80
2018-11-13T13:43:55.003Z,1.40
2018-11-13T13:46:22.460Z,1.63
2018-11-13T13:48:49.910Z,1.37
2018-11-13T13:51:17.356Z,1.63
2018-11-13T13:53:44.888Z,1.53
2018-11-13T13:56:12.252Z,1.57
2018-11-13T13:58:39.686Z,2.33
2018-11-13T14:01:07.158Z,2.50
2018-11-13T14:03:34.858Z,2.27
2018-11-13T14:06:02.137Z,1.70
2018-11-13T14:08:29.527Z,2.60
2018-11-13T14:10:56.987Z,2.03
2018-11-13T14:13:24.401Z,1.60
2018-11-13T14:15:51.843Z,1.43
2018-11-13T14:18:19.316Z,1.90
2018-11-13T14:20:46.830Z,1.53
2018-11-13T14:23:14.268Z,1.70
2018-11-13T14:25:41.837Z,1.70
2018-11-13T14:28:09.308Z,1.50
2018-11-13T14:30:37.346Z,1.50
2018-11-13T14:33:06.406Z,2.00
2018-11-13T14:35:33.928Z,2.13
2018-11-13T14:38:01.673Z,2.30
2018-11-13T14:40:32.460Z,1.50
2018-11-13T14:43:00.529Z,1.90
2018-11-13T14:45:28.204Z,1.37
2018-11-13T14:47:55.788Z,1.57
2018-11-13T14:50:24.504Z,1.83
2018-11-13T14:52:53.728Z,1.80
2018-11-13T14:55:23.816Z,1.60
2018-11-13T14:57:51.638Z,1.60
2018-11-13T15:00:22.656Z,1.10
2018-11-13T15:05:24.212Z,1.80
2018-11-13T15:07:53.070Z,1.67
2018-11-13T15:10:42.858Z,1.37
2018-11-13T15:13:10.687Z,1.03
2018-11-13T15:15:38.141Z,1.63
2018-11-13T15:18:05.764Z,2.17
2018-11-13T15:20:33.225Z,1.37
2018-11-13T15:23:00.715Z,1.40
2018-11-13T15:25:28.193Z,1.80
2018-11-13T15:27:55.624Z,1.47
2018-11-13T15:30:24.600Z,1.57
2018-11-13T15:32:54.686Z,1.27
2018-11-13T15:35:22.089Z,1.67
2018-11-13T15:37:49.534Z,1.30
2018-11-13T15:40:18.642Z,2.50
2018-11-13T15:42:46.186Z,1.80
2018-11-13T15:45:14.670Z,1.30
2018-11-13T15:47:42.965Z,1.30
2018-11-13T15:50:12.653Z,1.70
2018-11-13T15:52:40.109Z,1.30
2018-11-13T15:55:08.484Z,1.00
2018-11-13T15:57:36.543Z,2.00
2018-11-13T16:00:05.538Z,1.60
2018-11-13T16:02:33.011Z,1.80
2018-11-13T16:05:00.694Z,2.10
2018-11-13T16:07:28.134Z,1.60
2018-11-13T16:09:59.399Z,1.93
2018-11-13T16:12:27.024Z,2.00
2018-11-13T16:14:54.440Z,2.50
2018-11-13T16:17:21.901Z,2.20
2018-11-13T16:19:49.330Z,2.10
2018-11-13T16:22:16.764Z,2.53
2018-11-13T16:24:44.240Z,2.10
2018-11-13T16:27:11.700Z,2.10
2018-11-13T16:29:39.104Z,1.77
2018-11-13T16:32:06.718Z,2.30
2018-11-13T16:34:34.178Z,2.33
2018-11-13T16:37:02.070Z,2.07
2018-11-13T16:39:29.481Z,1.90
2018-11-13T16:41:57.002Z,2.87
2018-11-13T16:44:24.384Z,2.90
2018-11-13T16:46:52.034Z,2.37
2018-11-13T16:49:19.500Z,2.70
2018-11-13T16:51:46.959Z,2.30
2018-11-13T16:54:16.371Z,2.03
2018-11-13T16:56:49.587Z,2.23
2018-11-13T16:59:17.022Z,2.57
2018-11-13T17:01:44.514Z,2.13
2018-11-13T17:04:11.959Z,2.17
2018-11-13T17:06:39.688Z,2.90
2018-11-13T17:09:08.452Z,2.50
2018-11-13T17:11:36.116Z,2.47
2018-11-13T17:14:03.567Z,3.13
2018-11-13T17:16:31.128Z,3.10
2018-11-13T17:18:58.529Z,3.47
2018-11-13T17:21:26.143Z,2.50
2018-11-13T17:23:53.612Z,2.60
2018-11-13T17:26:21.043Z,2.90
2018-11-13T17:28:48.497Z,3.43
2018-11-13T17:31:15.956Z,3.37
2018-11-13T17:33:43.412Z,4.10
2018-11-13T17:36:10.857Z,3.43
2018-11-13T17:38:38.329Z,3.17
2018-11-13T17:41:05.801Z,3.37
2018-11-13T17:43:33.253Z,4.23
2018-11-13T17:46:00.772Z,4.00
2018-11-13T17:48:28.211Z,4.33
2018-11-13T17:50:55.668Z,3.53
2018-11-13T17:53:23.151Z,2.90
2018-11-13T17:55:50.534Z,3.20
2018-11-13T17:58:17.992Z,3.43
2018-11-13T18:00:46.659Z,3.20
2018-11-13T18:03:14.621Z,3.37
2018-11-13T18:05:42.325Z,2.93
2018-11-13T18:08:10.387Z,2.80
2018-11-13T18:10:38.844Z,3.10
2018-11-13T18:13:06.455Z,3.30
2018-11-13T18:15:33.951Z,4.43
2018-11-13T18:18:01.774Z,3.03
2018-11-13T18:20:31.173Z,3.10
2018-11-13T18:22:59.089Z,3.57
2018-11-13T18:25:26.870Z,2.93
2018-11-13T18:27:55.451Z,3.10
2018-11-13T18:30:27.011Z,3.13
2018-11-13T18:32:54.958Z,3.87
2018-11-13T18:35:25.430Z,3.47
2018-11-13T18:37:53.729Z,3.03
2018-11-13T18:40:21.768Z,2.97
2018-11-13T18:42:49.974Z,3.77
2018-11-13T18:45:19.657Z,2.90
2018-11-13T18:47:47.209Z,3.37
2018-11-13T18:50:17.233Z,3.00
2018-11-13T18:52:44.731Z,4.03
2018-11-13T18:55:12.854Z,4.27
2018-11-13T18:57:40.836Z,3.60
2018-11-13T19:00:12.116Z,4.47
2018-11-13T19:02:39.671Z,5.20
2018-11-13T19:05:07.491Z,4.20
2018-11-13T19:07:34.913Z,4.60
2018-11-13T19:10:02.515Z,4.77
2018-11-13T19:12:30.061Z,4.30
2018-11-13T19:14:57.561Z,5.13
2018-11-13T19:17:25.081Z,4.33
2018-11-13T19:19:52.808Z,4.90
2018-11-13T19:22:20.156Z,5.43
2018-11-13T19:24:47.577Z,5.30
2018-11-13T19:27:15.033Z,4.83
2018-11-13T19:29:42.925Z,5.00
2018-11-13T19:32:10.455Z,5.00
2018-11-13T19:34:38.308Z,4.50
2018-11-13T19:37:06.246Z,4.77
2018-11-13T19:39:33.945Z,4.87
2018-11-13T19:42:01.512Z,5.10
2018-11-13T19:44:29.201Z,4.57
2018-11-13T19:46:56.880Z,5.87
2018-11-13T19:49:24.913Z,5.63
2018-11-13T19:51:52.341Z,6.47
2018-11-13T19:54:19.924Z,5.50
2018-11-13T19:56:47.881Z,7.70
2018-11-13T19:59:15.591Z,5.93
2018-11-13T20:01:43.091Z,6.93
2018-11-13T20:04:10.637Z,6.63
2018-11-13T20:06:38.107Z,5.73
2018-11-13T20:09:06.018Z,6.50
2018-11-13T20:11:33.448Z,6.97
2018-11-13T20:14:01.041Z,6.07
2018-11-13T20:16:28.514Z,6.10
2018-11-13T20:18:55.993Z,6.37
2018-11-13T20:21:23.453Z,5.87
2018-11-13T20:23:50.877Z,6.30
2018-11-13T20:26:18.313Z,5.07
2018-11-13T20:28:45.785Z,5.27
2018-11-13T20:31:13.231Z,5.00
2018-11-13T20:33:40.749Z,5.47
2018-11-13T20:36:08.224Z,5.07
2018-11-13T20:38:35.692Z,5.10
2018-11-13T20:41:03.165Z,4.07
2018-11-13T20:43:30.636Z,5.13
2018-11-13T20:45:58.213Z,4.27
2018-11-13T20:48:25.703Z,5.10
2018-11-13T20:50:53.196Z,4.73
2018-11-13T20:53:20.724Z,4.20
2018-11-13T20:55:48.290Z,4.40
2018-11-13T20:58:16.049Z,4.47
2018-11-13T21:00:43.493Z,4.83
2018-11-13T21:03:10.943Z,4.10
2018-11-13T21:05:38.484Z,4.60
2018-11-13T21:08:05.924Z,3.77
2018-11-13T21:10:35.045Z,3.93
2018-11-13T21:13:03.274Z,3.87
2018-11-13T21:15:30.887Z,3.50
2018-11-13T21:17:58.428Z,4.50
2018-11-13T21:20:26.164Z,4.47
2018-11-13T21:22:53.393Z,3.90
2018-11-13T21:25:22.124Z,4.00
2018-11-13T21:27:51.455Z,3.90
2018-11-13T21:30:20.099Z,4.87
2018-11-13T21:32:48.262Z,4.20
2018-11-13T21:35:15.982Z,3.73
2018-11-13T21:37:44.818Z,4.07
2018-11-13T21:40:13.486Z,4.53
2018-11-13T21:42:41.227Z,3.80
2018-11-13T21:45:09.446Z,3.80
2018-11-13T21:47:36.942Z,4.20
2018-11-13T21:50:05.505Z,3.60
2018-11-13T21:52:32.928Z,3.73
2018-11-13T21:55:00.432Z,3.70
2018-11-13T21:57:27.886Z,4.70
2018-11-13T21:59:55.358Z,3.87
2018-11-13T22:02:22.850Z,3.90
2018-11-13T22:04:50.394Z,3.90
2018-11-13T22:07:32.393Z,3.60
2018-11-13T22:10:02.730Z,3.53
2018-11-13T22:12:30.194Z,3.43
2018-11-13T22:14:58.814Z,3.63
2018-11-13T22:17:26.242Z,3.53
2018-11-13T22:19:53.800Z,3.20
2018-11-13T22:22:21.266Z,3.47
2018-11-13T22:24:48.924Z,3.27
2018-11-13T22:27:16.446Z,3.57
2018-11-13T22:29:43.757Z,3.77
2018-11-13T22:32:11.160Z,3.70
2018-11-13T22:34:38.576Z,3.63
2018-11-13T22:37:06.064Z,3.83
2018-11-13T22:39:33.695Z,3.77
2018-11-13T22:42:01.173Z,3.17
2018-11-13T22:44:28.614Z,4.03
2018-11-13T22:46:56.754Z,4.17
2018-11-13T22:49:24.206Z,3.53
2018-11-13T22:51:51.736Z,3.83
2018-11-13T22:54:19.164Z,3.90
2018-11-13T22:56:46.554Z,3.60
2018-11-13T22:59:14.036Z,4.10
2018-11-13T23:01:41.555Z,3.57
2018-11-13T23:04:08.966Z,3.53
2018-11-13T23:06:36.744Z,4.07
2018-11-13T23:09:06.773Z,3.77
2018-11-13T23:11:34.214Z,3.70
2018-11-13T23:14:01.735Z,4.20
2018-11-13T23:16:29.151Z,3.63
2018-11-13T23:18:56.616Z,3.77
2018-11-13T23:21:24.099Z,3.57
2018-11-13T23:23:51.496Z,3.30
2018-11-13T23:26:18.914Z,3.77
2018-11-13T23:28:46.363Z,3.50
2018-11-13T23:31:13.774Z,4.10
2018-11-13T23:33:41.323Z,4.10
2018-11-13T23:36:08.808Z,3.93
2018-11-13T23:38:36.172Z,4.63
2018-11-13T23:41:03.606Z,3.70
2018-11-13T23:43:31.035Z,4.37
2018-11-13T23:45:58.464Z,4.37
2018-11-13T23:48:25.964Z,4.27
2018-11-13T23:50:53.448Z,4.40
2018-11-13T23:53:20.888Z,4.23
2018-11-13T23:55:48.598Z,4.27
2018-11-13T23:58:16.038Z,4.17
